createdAt,value
2017-08-10T00:00:18.121Z,3.00
2017-08-10T00:02:50.276Z,2.37
2017-08-10T00:05:23.693Z,2.03
2017-08-10T00:07:57.932Z,1.37
2017-08-10T00:10:29.587Z,2.10
2017-08-10T00:13:03.534Z,3.27
2017-08-10T00:15:36.448Z,1.83
2017-08-10T00:18:08.544Z,1.50
2017-08-10T00:20:40.469Z,1.20
2017-08-10T00:23:12.655Z,1.57
2017-08-10T00:25:44.549Z,2.70
2017-08-10T00:28:16.500Z,1.60
2017-08-10T00:30:48.649Z,1.73
2017-08-10T00:33:20.458Z,3.23
2017-08-10T00:35:53.478Z,13.13
2017-08-10T00:38:26.594Z,1.30
2017-08-10T00:41:00.376Z,1.30
2017-08-10T00:43:32.310Z,2.97
2017-08-10T00:46:04.592Z,1.40
2017-08-10T00:48:36.353Z,2.03
2017-08-10T00:51:08.536Z,1.00
2017-08-10T00:53:40.358Z,2.10
2017-08-10T00:56:12.522Z,1.20
2017-08-10T00:58:45.207Z,2.00
2017-08-10T01:01:19.961Z,2.90
2017-08-10T01:03:51.718Z,2.03
2017-08-10T01:06:24.101Z,1.20
2017-08-10T01:08:58.699Z,1.47
2017-08-10T01:11:31.142Z,2.20
2017-08-10T01:14:08.256Z,1.33
2017-08-10T01:16:40.869Z,1.40
2017-08-10T01:19:12.706Z,1.43
2017-08-10T01:21:45.738Z,1.77
2017-08-10T01:24:18.785Z,1.03
2017-08-10T01:26:50.672Z,1.13
2017-08-10T01:29:23.553Z,1.63
2017-08-10T01:32:00.214Z,1.40
2017-08-10T01:34:32.801Z,1.93
2017-08-10T01:37:05.151Z,1.70
2017-08-10T01:39:36.857Z,1.87
2017-08-10T01:42:08.613Z,1.23
2017-08-10T01:44:40.302Z,1.57
2017-08-10T01:47:12.125Z,1.20
2017-08-10T01:49:44.767Z,2.67
2017-08-10T01:52:16.549Z,4.00
2017-08-10T01:54:48.788Z,1.67
2017-08-10T01:57:20.903Z,1.53
2017-08-10T01:59:52.843Z,1.00
2017-08-10T02:02:24.958Z,3.43
2017-08-10T02:04:59.016Z,1.20
2017-08-10T02:07:32.701Z,3.93
2017-08-10T02:10:04.388Z,1.83
2017-08-10T02:12:35.744Z,4.67
2017-08-10T02:15:07.974Z,2.50
2017-08-10T02:17:39.744Z,1.90
2017-08-10T02:20:11.590Z,2.53
2017-08-10T02:22:44.971Z,2.07
2017-08-10T02:25:16.806Z,4.00
2017-08-10T02:27:48.134Z,2.50
2017-08-10T02:30:21.058Z,1.67
2017-08-10T02:32:53.037Z,2.00
2017-08-10T02:35:28.398Z,3.70
2017-08-10T02:38:04.464Z,1.30
2017-08-10T02:40:41.105Z,3.90
2017-08-10T02:43:26.720Z,3.60
2017-08-10T02:46:01.509Z,1.70
2017-08-10T02:48:33.705Z,1.50
2017-08-10T02:51:05.899Z,1.30
2017-08-10T02:53:40.451Z,1.30
2017-08-10T02:56:12.608Z,2.90
2017-08-10T02:58:44.631Z,3.40
2017-08-10T03:01:16.810Z,1.47
2017-08-10T03:03:48.545Z,3.47
2017-08-10T03:06:21.510Z,6.70
2017-08-10T03:08:54.080Z,1.70
2017-08-10T03:11:25.754Z,1.20
2017-08-10T03:13:59.749Z,3.50
2017-08-10T03:16:33.747Z,1.30
2017-08-10T03:19:07.042Z,2.53
2017-08-10T03:21:38.838Z,4.23
2017-08-10T03:24:11.421Z,2.00
2017-08-10T03:26:44.098Z,2.40
2017-08-10T03:29:15.538Z,2.03
2017-08-10T03:31:48.430Z,1.80
2017-08-10T03:34:22.359Z,1.70
2017-08-10T03:36:58.371Z,2.47
2017-08-10T03:39:31.155Z,1.70
2017-08-10T03:42:04.239Z,1.70
2017-08-10T03:44:35.754Z,2.20
2017-08-10T03:47:07.632Z,5.47
2017-08-10T03:49:39.498Z,1.90
2017-08-10T03:52:13.755Z,1.50
2017-08-10T03:54:45.948Z,1.73
2017-08-10T03:57:21.196Z,2.30
2017-08-10T03:59:58.522Z,2.07
2017-08-10T04:02:31.486Z,2.23
2017-08-10T04:05:03.937Z,1.50
2017-08-10T04:07:35.719Z,2.13
2017-08-10T04:10:07.898Z,4.07
2017-08-10T04:12:40.576Z,2.27
2017-08-10T04:15:14.566Z,2.10
2017-08-10T04:17:46.915Z,3.57
2017-08-10T04:20:18.989Z,1.80
2017-08-10T04:22:50.728Z,3.10
2017-08-10T04:25:22.651Z,2.00
2017-08-10T04:28:00.183Z,2.40
2017-08-10T04:30:32.298Z,1.97
2017-08-10T04:33:06.183Z,3.47
2017-08-10T04:35:38.419Z,1.70
2017-08-10T04:38:11.052Z,1.80
2017-08-10T04:40:43.426Z,3.33
2017-08-10T04:43:16.267Z,1.70
2017-08-10T04:45:53.648Z,3.17
2017-08-10T04:48:29.206Z,2.57
2017-08-10T04:51:06.659Z,2.13
2017-08-10T04:53:43.002Z,2.30
2017-08-10T04:56:16.931Z,3.80
2017-08-10T04:58:49.976Z,6.33
2017-08-10T05:01:21.907Z,2.23
2017-08-10T05:04:06.677Z,2.53
2017-08-10T05:06:45.027Z,2.33
2017-08-10T05:09:22.869Z,6.70
2017-08-10T05:12:07.333Z,2.83
2017-08-10T05:14:39.057Z,2.10
2017-08-10T05:17:26.995Z,2.40
2017-08-10T05:20:08.117Z,3.53
2017-08-10T05:22:43.586Z,2.77
2017-08-10T05:25:25.552Z,2.77
2017-08-10T05:28:08.528Z,3.07
2017-08-10T05:30:42.990Z,3.87
2017-08-10T05:33:16.340Z,5.50
2017-08-10T05:35:49.374Z,3.70
2017-08-10T05:38:21.664Z,2.57
2017-08-10T05:40:53.981Z,2.23
2017-08-10T05:43:26.663Z,2.27
2017-08-10T05:46:01.061Z,2.20
2017-08-10T05:48:33.209Z,2.47
2017-08-10T05:51:05.594Z,10.43
2017-08-10T05:53:38.166Z,7.03
2017-08-10T05:56:11.077Z,3.13
2017-08-10T05:58:43.346Z,7.63
2017-08-10T06:01:15.164Z,6.13
2017-08-10T06:03:47.261Z,2.80
2017-08-10T06:06:20.812Z,4.37
2017-08-10T06:08:55.686Z,4.70
2017-08-10T06:11:29.369Z,4.33
2017-08-10T06:14:07.840Z,3.53
2017-08-10T06:16:39.666Z,4.50
2017-08-10T06:19:13.292Z,6.30
2017-08-10T06:21:44.595Z,8.67
2017-08-10T06:24:18.692Z,6.30
2017-08-10T06:26:51.467Z,4.50
2017-08-10T06:29:24.892Z,4.37
2017-08-10T06:31:59.732Z,4.13
2017-08-10T06:34:31.920Z,7.00
2017-08-10T06:37:06.252Z,3.10
2017-08-10T06:39:38.259Z,5.70
2017-08-10T06:42:11.016Z,6.70
2017-08-10T06:44:46.341Z,7.27
2017-08-10T06:47:19.402Z,8.00
2017-08-10T06:49:51.351Z,13.30
2017-08-10T06:52:24.101Z,14.83
2017-08-10T06:55:00.330Z,9.27
2017-08-10T06:57:34.132Z,16.93
2017-08-10T07:00:10.939Z,14.30
2017-08-10T07:02:51.333Z,17.40
2017-08-10T07:05:23.403Z,11.53
2017-08-10T07:08:03.445Z,25.10
2017-08-10T07:10:42.779Z,15.70
2017-08-10T07:13:23.615Z,7.57
2017-08-10T07:16:11.001Z,9.50
2017-08-10T07:18:48.481Z,19.80
2017-08-10T07:24:08.310Z,13.97
2017-08-10T07:26:44.211Z,15.37
2017-08-10T07:29:22.299Z,13.40
2017-08-10T07:31:59.821Z,15.13
2017-08-10T07:34:33.002Z,15.13
2017-08-10T07:37:10.633Z,11.00
2017-08-10T07:39:48.000Z,12.60
2017-08-10T07:42:23.032Z,9.53
2017-08-10T07:45:04.164Z,10.50
2017-08-10T07:47:38.284Z,15.97
2017-08-10T07:50:17.487Z,7.73
2017-08-10T07:52:53.885Z,18.00
2017-08-10T07:55:30.673Z,4.70
2017-08-10T08:01:09.907Z,12.13
2017-08-10T08:07:19.094Z,7.87
2017-08-10T08:10:29.987Z,10.00
2017-08-10T08:16:01.692Z,17.00
2017-08-10T08:18:39.194Z,19.93
2017-08-10T08:21:16.011Z,7.97
2017-08-10T08:23:49.381Z,10.90
2017-08-10T08:26:23.405Z,20.23
2017-08-10T08:29:02.234Z,11.90
2017-08-10T08:31:35.911Z,9.40
2017-08-10T08:34:30.428Z,11.37
2017-08-10T08:37:17.683Z,5.13
2017-08-10T08:42:36.472Z,7.77
2017-08-10T08:45:10.679Z,10.30
2017-08-10T08:47:49.195Z,12.23
2017-08-10T08:50:20.913Z,5.37
2017-08-10T08:52:54.007Z,7.47
2017-08-10T08:55:31.428Z,34.57
2017-08-10T08:58:08.178Z,57.97
2017-08-10T09:00:51.296Z,26.87
2017-08-10T09:03:38.267Z,19.70
2017-08-10T09:06:16.555Z,16.47
2017-08-10T09:08:48.133Z,13.27
2017-08-10T09:11:27.968Z,11.20
2017-08-10T09:14:00.688Z,8.50
2017-08-10T09:16:33.807Z,8.83
2017-08-10T09:19:06.252Z,11.40
2017-08-10T09:21:38.165Z,6.57
2017-08-10T09:24:11.157Z,9.97
2017-08-10T09:26:43.477Z,5.00
2017-08-10T09:29:15.012Z,4.80
2017-08-10T09:31:48.386Z,3.40
2017-08-10T09:34:31.940Z,6.33
2017-08-10T09:37:04.291Z,3.80
2017-08-10T09:39:38.561Z,4.50
2017-08-10T09:42:14.718Z,5.70
2017-08-10T09:44:46.206Z,5.93
2017-08-10T09:47:18.305Z,2.90
2017-08-10T09:49:51.406Z,3.80
2017-08-10T09:52:23.410Z,5.67
2017-08-10T09:54:58.322Z,4.20
2017-08-10T09:57:30.978Z,3.23
2017-08-10T10:00:05.567Z,4.87
2017-08-10T10:02:39.717Z,6.57
2017-08-10T10:05:13.688Z,6.23
2017-08-10T10:07:45.411Z,14.23
2017-08-10T10:10:17.393Z,7.40
2017-08-10T10:12:49.423Z,9.83
2017-08-10T10:15:24.381Z,7.13
2017-08-10T10:18:01.762Z,2.83
2017-08-10T10:20:35.125Z,3.60
2017-08-10T10:23:12.023Z,6.03
2017-08-10T10:25:44.963Z,3.10
2017-08-10T10:28:17.974Z,7.20
2017-08-10T10:30:49.589Z,3.57
2017-08-10T10:33:21.825Z,8.73
2017-08-10T10:38:33.132Z,4.50
2017-08-10T10:41:12.328Z,7.60
2017-08-10T10:43:47.873Z,10.57
2017-08-10T10:46:30.038Z,4.37
2017-08-10T10:49:08.438Z,5.27
2017-08-10T10:51:41.270Z,3.80
2017-08-10T10:54:17.855Z,3.87
2017-08-10T10:56:49.941Z,5.47
2017-08-10T10:59:22.245Z,2.90
2017-08-10T11:01:57.944Z,3.57
2017-08-10T11:04:30.645Z,3.67
2017-08-10T11:07:03.138Z,9.93
2017-08-10T11:09:34.646Z,4.03
2017-08-10T11:12:06.724Z,9.10
2017-08-10T11:14:39.020Z,2.87
2017-08-10T11:17:12.202Z,2.67
2017-08-10T11:19:45.912Z,3.37
2017-08-10T11:22:18.207Z,3.43
2017-08-10T11:24:59.204Z,2.80
2017-08-10T11:27:33.786Z,3.20
2017-08-10T11:30:08.404Z,4.27
2017-08-10T11:32:41.909Z,2.67
2017-08-10T11:35:13.854Z,3.33
2017-08-10T11:37:46.804Z,2.97
2017-08-10T11:40:20.786Z,2.90
2017-08-10T11:42:52.364Z,3.43
2017-08-10T11:45:23.966Z,2.90
2017-08-10T11:47:59.060Z,2.50
2017-08-10T11:50:31.734Z,2.90
2017-08-10T11:53:03.856Z,3.80
2017-08-10T11:55:37.887Z,3.47
2017-08-10T11:58:10.039Z,3.20
2017-08-10T12:00:42.471Z,3.17
2017-08-10T12:03:14.631Z,3.20
2017-08-10T12:05:47.826Z,2.90
2017-08-10T12:08:20.562Z,4.07
2017-08-10T12:10:53.027Z,3.70
2017-08-10T12:13:25.746Z,3.30
2017-08-10T12:15:59.769Z,2.90
2017-08-10T12:18:33.111Z,2.27
2017-08-10T12:21:05.852Z,2.93
2017-08-10T12:23:38.739Z,2.97
2017-08-10T12:26:12.046Z,2.67
2017-08-10T12:28:44.604Z,5.23
2017-08-10T12:31:17.693Z,4.93
2017-08-10T12:33:49.531Z,7.97
2017-08-10T12:36:24.457Z,3.83
2017-08-10T12:39:03.240Z,7.60
2017-08-10T12:41:36.360Z,5.20
2017-08-10T12:44:08.749Z,4.97
2017-08-10T12:46:40.382Z,6.33
2017-08-10T12:49:12.959Z,9.13
2017-08-10T12:51:45.579Z,9.80
2017-08-10T12:54:20.106Z,11.70
2017-08-10T12:56:52.246Z,3.80
2017-08-10T12:59:25.137Z,5.23
2017-08-10T13:02:00.448Z,7.57
2017-08-10T13:04:32.978Z,5.70
2017-08-10T13:07:04.601Z,2.90
2017-08-10T13:09:36.458Z,5.07
2017-08-10T13:12:08.750Z,2.93
2017-08-10T13:14:40.937Z,8.27
2017-08-10T13:17:13.126Z,3.00
2017-08-10T13:19:45.282Z,3.47
2017-08-10T13:22:20.706Z,6.37
2017-08-10T13:24:54.026Z,4.70
2017-08-10T13:27:25.705Z,3.33
2017-08-10T13:30:02.341Z,5.50
2017-08-10T13:32:48.595Z,4.80
2017-08-10T13:35:30.728Z,4.27
2017-08-10T13:38:03.786Z,3.37
2017-08-10T13:40:36.960Z,3.43
2017-08-10T13:43:09.048Z,6.13
2017-08-10T13:45:41.485Z,7.93
2017-08-10T13:48:13.199Z,4.20
2017-08-10T13:50:44.888Z,7.53
2017-08-10T13:53:16.408Z,3.67
2017-08-10T13:55:50.261Z,3.23
2017-08-10T13:58:23.577Z,11.90
2017-08-10T14:00:59.723Z,4.27
2017-08-10T14:03:32.590Z,8.53
2017-08-10T14:06:04.785Z,6.67
2017-08-10T14:08:39.887Z,3.07
2017-08-10T14:11:11.917Z,6.10
2017-08-10T14:13:45.271Z,3.13
2017-08-10T14:16:18.538Z,6.67
2017-08-10T14:18:51.089Z,7.90
2017-08-10T14:21:27.046Z,6.27
2017-08-10T14:24:07.290Z,14.27
2017-08-10T14:26:42.286Z,8.97
2017-08-10T14:29:38.381Z,10.93
2017-08-10T14:32:11.189Z,4.77
2017-08-10T14:34:47.228Z,7.17
2017-08-10T14:37:28.329Z,8.60
2017-08-10T14:40:04.067Z,3.43
2017-08-10T14:45:28.915Z,5.83
2017-08-10T14:48:01.617Z,6.93
2017-08-10T14:50:40.184Z,6.43
2017-08-10T14:53:13.442Z,2.93
2017-08-10T14:55:47.180Z,4.47
2017-08-10T14:58:20.312Z,3.57
2017-08-10T15:00:53.116Z,3.73
2017-08-10T15:03:27.422Z,5.00
2017-08-10T15:06:02.009Z,6.33
2017-08-10T15:08:38.445Z,5.90
2017-08-10T15:11:58.013Z,3.33
2017-08-10T15:14:31.395Z,4.90
2017-08-10T15:17:04.819Z,3.10
2017-08-10T15:19:36.936Z,4.37
2017-08-10T15:22:10.084Z,3.57
2017-08-10T15:24:41.961Z,3.23
2017-08-10T15:27:14.828Z,3.80
2017-08-10T15:29:46.779Z,6.20
2017-08-10T15:32:19.925Z,8.30
2017-08-10T15:34:53.006Z,10.20
2017-08-10T15:37:26.104Z,11.60
2017-08-10T15:40:01.572Z,6.10
2017-08-10T15:42:32.909Z,6.07
2017-08-10T15:45:09.783Z,5.13
2017-08-10T15:47:49.586Z,8.90
2017-08-10T15:50:22.245Z,10.23
2017-08-10T15:53:00.300Z,6.63
2017-08-10T15:55:37.902Z,5.63
2017-08-10T15:58:10.901Z,5.03
2017-08-10T16:00:44.397Z,3.60
2017-08-10T16:03:19.705Z,3.80
2017-08-10T16:05:54.016Z,8.00
2017-08-10T16:08:37.725Z,5.37
2017-08-10T16:11:11.293Z,15.93
2017-08-10T16:13:50.566Z,12.17
2017-08-10T16:16:25.441Z,7.27
2017-08-10T16:19:03.773Z,8.57
2017-08-10T16:21:37.900Z,8.80
2017-08-10T16:24:09.903Z,16.37
2017-08-10T16:26:42.693Z,28.07
2017-08-10T16:29:14.617Z,23.73
2017-08-10T16:31:47.512Z,29.40
2017-08-10T16:34:19.588Z,18.13
2017-08-10T16:36:51.680Z,25.60
2017-08-10T16:39:28.998Z,17.37
2017-08-10T16:42:07.596Z,13.63
2017-08-10T16:44:52.254Z,13.13
2017-08-10T16:47:34.791Z,22.53
2017-08-10T16:50:18.304Z,11.13
2017-08-10T16:52:59.519Z,10.67
2017-08-10T16:55:34.654Z,8.20
2017-08-10T16:58:08.321Z,9.03
2017-08-10T17:00:42.629Z,9.10
2017-08-10T17:03:17.880Z,7.03
2017-08-10T17:05:50.485Z,6.40
2017-08-10T17:08:22.523Z,7.17
2017-08-10T17:10:59.092Z,3.83
2017-08-10T17:13:31.431Z,9.87
2017-08-10T17:16:07.498Z,12.33
2017-08-10T17:18:40.551Z,16.17
2017-08-10T17:21:13.024Z,8.73
2017-08-10T17:23:46.508Z,11.77
2017-08-10T17:26:20.142Z,7.33
2017-08-10T17:28:54.196Z,7.73
2017-08-10T17:31:27.067Z,5.03
2017-08-10T17:34:02.728Z,4.10
2017-08-10T17:36:34.973Z,5.50
2017-08-10T17:39:14.838Z,5.23
2017-08-10T17:41:46.861Z,5.30
2017-08-10T17:44:23.020Z,3.27
2017-08-10T17:46:58.005Z,4.60
2017-08-10T17:49:31.693Z,4.27
2017-08-10T17:52:06.338Z,4.10
2017-08-10T17:54:42.888Z,4.77
2017-08-10T17:57:14.664Z,8.17
2017-08-10T17:59:48.123Z,6.33
2017-08-10T18:02:24.642Z,8.73
2017-08-10T18:04:58.168Z,9.30
2017-08-10T18:07:32.253Z,9.73
2017-08-10T18:10:06.872Z,16.23
2017-08-10T18:12:44.535Z,9.67
2017-08-10T18:15:27.355Z,10.53
2017-08-10T18:18:03.798Z,16.43
2017-08-10T18:21:06.996Z,10.07
2017-08-10T18:23:42.251Z,17.40
2017-08-10T18:26:18.693Z,10.13
2017-08-10T18:28:51.814Z,15.30
2017-08-10T18:31:28.885Z,11.87
2017-08-10T18:34:04.473Z,9.57
2017-08-10T18:36:37.588Z,10.00
2017-08-10T18:39:10.368Z,6.13
2017-08-10T18:41:45.167Z,5.40
2017-08-10T18:44:17.939Z,8.77
2017-08-10T18:46:51.850Z,6.40
2017-08-10T18:49:26.610Z,6.03
2017-08-10T18:52:03.971Z,5.90
2017-08-10T18:54:39.887Z,5.80
2017-08-10T18:57:12.263Z,4.23
2017-08-10T18:59:44.036Z,7.03
2017-08-10T19:02:16.997Z,7.57
2017-08-10T19:04:49.268Z,3.87
2017-08-10T19:07:22.459Z,5.13
2017-08-10T19:09:56.926Z,7.50
2017-08-10T19:12:31.506Z,5.00
2017-08-10T19:15:07.258Z,6.60
2017-08-10T19:17:38.899Z,4.27
2017-08-10T19:20:14.838Z,6.87
2017-08-10T19:22:46.646Z,7.40
2017-08-10T19:25:20.505Z,6.63
2017-08-10T19:27:52.041Z,9.73
2017-08-10T19:30:23.825Z,5.10
2017-08-10T19:33:01.463Z,5.20
2017-08-10T19:35:34.485Z,7.90
2017-08-10T19:38:08.535Z,5.70
2017-08-10T19:40:41.447Z,5.87
2017-08-10T19:43:13.083Z,14.73
2017-08-10T19:45:45.599Z,7.73
2017-08-10T19:48:20.530Z,8.50
2017-08-10T19:50:53.575Z,6.97
2017-08-10T19:53:26.228Z,5.87
2017-08-10T19:56:01.603Z,13.10
2017-08-10T19:58:34.003Z,9.70
2017-08-10T20:01:10.668Z,6.87
2017-08-10T20:03:44.917Z,5.90
2017-08-10T20:06:21.791Z,7.13
2017-08-10T20:09:07.898Z,7.57
2017-08-10T20:11:43.122Z,5.90
2017-08-10T20:14:15.755Z,6.97
2017-08-10T20:16:49.464Z,9.03
2017-08-10T20:19:21.550Z,6.40
2017-08-10T20:21:59.436Z,4.27
2017-08-10T20:24:43.938Z,9.73
2017-08-10T20:27:33.414Z,8.90
2017-08-10T20:30:08.605Z,9.33
2017-08-10T20:32:41.519Z,6.17
2017-08-10T20:35:16.287Z,4.40
2017-08-10T20:37:48.625Z,4.77
2017-08-10T20:40:21.123Z,4.60
2017-08-10T20:44:15.580Z,4.60
2017-08-10T20:47:13.737Z,6.47
2017-08-10T20:55:10.165Z,5.00
2017-08-10T20:57:42.691Z,4.80
2017-08-10T21:00:14.831Z,7.23
2017-08-10T21:02:47.536Z,5.80
2017-08-10T21:05:20.047Z,6.23
2017-08-10T21:07:51.607Z,4.20
2017-08-10T21:10:23.945Z,11.10
2017-08-10T21:12:57.741Z,4.90
2017-08-10T21:15:29.541Z,3.80
2017-08-10T21:18:01.384Z,5.27
2017-08-10T21:20:33.414Z,12.23
2017-08-10T21:23:05.324Z,5.13
2017-08-10T21:25:41.490Z,4.60
2017-08-10T21:28:16.367Z,5.03
2017-08-10T21:30:48.132Z,4.50
2017-08-10T21:33:19.851Z,7.27
2017-08-10T21:35:52.763Z,5.50
2017-08-10T21:38:25.143Z,7.70
2017-08-10T21:40:56.573Z,6.90
2017-08-10T21:43:30.358Z,7.20
2017-08-10T21:46:02.026Z,15.97
2017-08-10T21:48:34.300Z,13.43
2017-08-10T21:51:06.529Z,6.00
2017-08-10T21:53:38.755Z,6.20
2017-08-10T21:56:11.360Z,9.43
2017-08-10T21:58:43.298Z,4.67
2017-08-10T22:01:15.020Z,3.90
2017-08-10T22:03:46.945Z,3.47
2017-08-10T22:06:20.283Z,8.30
2017-08-10T22:08:52.507Z,6.47
2017-08-10T22:11:26.111Z,4.10
2017-08-10T22:13:59.215Z,7.60
2017-08-10T22:16:32.261Z,6.53
2017-08-10T22:19:04.739Z,4.83
2017-08-10T22:21:36.574Z,10.90
2017-08-10T22:24:08.409Z,5.03
2017-08-10T22:26:41.025Z,5.90
2017-08-10T22:29:12.635Z,4.30
2017-08-10T22:31:44.312Z,3.33
2017-08-10T22:34:16.733Z,2.93
2017-08-10T22:36:50.694Z,3.43
2017-08-10T22:39:24.184Z,3.27
2017-08-10T22:41:59.640Z,3.43
2017-08-10T22:44:33.947Z,4.03
2017-08-10T22:47:09.034Z,2.80
2017-08-10T22:49:40.431Z,3.60
2017-08-10T22:52:12.056Z,2.80
2017-08-10T22:54:43.977Z,2.67
2017-08-10T22:57:17.615Z,5.40
2017-08-10T22:59:50.859Z,4.20
2017-08-10T23:02:23.406Z,4.63
2017-08-10T23:04:57.156Z,6.10
2017-08-10T23:07:28.765Z,7.87
2017-08-10T23:10:01.159Z,2.50
2017-08-10T23:12:33.527Z,2.10
2017-08-10T23:15:05.622Z,2.20
2017-08-10T23:17:37.529Z,2.37
2017-08-10T23:20:09.201Z,2.20
2017-08-10T23:22:41.601Z,3.53
2017-08-10T23:25:13.871Z,3.27
2017-08-10T23:27:45.260Z,5.07
2017-08-10T23:30:16.740Z,1.70
2017-08-10T23:32:49.718Z,1.83
2017-08-10T23:35:21.296Z,2.13
2017-08-10T23:37:53.426Z,1.97
2017-08-10T23:40:29.363Z,2.20
2017-08-10T23:43:01.551Z,2.17
2017-08-10T23:45:33.894Z,2.00
2017-08-10T23:48:05.474Z,2.33
2017-08-10T23:50:37.089Z,2.13
2017-08-10T23:53:09.631Z,2.00
2017-08-10T23:55:42.375Z,1.70
2017-08-10T23:58:15.019Z,1.70
